Úvod História Fotogaléria Ponuka Kurzy Kontakt

Objednávky od 01. 01. 2017

Číslo objednávky Dodávateľ IČO Predmet dodávky Hodnota s DPH Dátum vyhotovenia Vyhotovil Funkcia
4500030094 NÁDEJ-výd.zdr.potrieb,Levoča 33982317 zdravotnícky materiál 84,42 EUR 03.10.2016 M.Tatarková hospodárka
4500030177 JRK Waste Management, s.r.o. 45423237 komposter 1 380,00 EUR 06.10.2016 M.Tatarková hospodárka
4500030178 DATAS-Lučivjanský, SNV 35320214 kopírovací stroj Sharp 1 848,00 EUR 06.10.2016 M.Tatarková hospodárka
4500030182 DATAS-Lučivjanský, SNV 35320214 kopírovací stroj Brother 149,00 EUR 06.10.2016 M.Tatarková hospodárka
4500030213 EL spol.s.r.o., SNV 31652859 analýza potravín 56,04 EUR 06.10.2016 M.Tatarková hospodárka
4500030219 Mgr.M. Valkovič,KNIHATAR,PP 47351969 vzduch.puška s prísluš. 2 270,00 EUR 10.10.2016 M.Tatarková hospodárka
4500031396 AJFA+AVIS 31602436 predpl. Mzd.účt.r.2017 49,50 EUR 02.01.2017 M.Tatarková hospodárka
4500031478 Poradca podnikateľa,s.r.o.Žilina 31592503 Verejná správa-vyúčt.r.2016 13,67 EUR 09.01.2017 M.Tatarková hospodárka
1003030009 Ľubomír Kaňuch, Iliašovce 34572970 služby bezpečn.technika 300,00 EUR 09.01.2017 M.Tatarková hospodárka
1003020020 Mäsovýroba Dončák 46305718 zmluva r.2017 4 641,90 EUR 20.01.2017 M.Tatarková hospodárka
1003020021 Vladimír Bigoš, Levoča 10757597 zelenina a ovocie r.2017 2 414,52 EUR 10.01.2017 M.Tatarková hospodárka
1003020026 Spiš Market s.r.o., SNV 31729541 mäso, mäs.výr., hydina r.2017 3 776,72 EUR 10.01.2017 M.Tatarková hospodárka
1003020027 Bidfood Slovakia,s.r.o., NMnV 34152199 mraz.výr., zelen. a hydina, r.2017 1 788,91 EUR 26.01.2017 M.Tatarková hospodárka
1003020028 Mária Galajdová, Levoča 14372851 potraviny r.2017 11 206,28 EUR 10.01.2017 M.Tatarková hospodárka
4500031504 Vl.Kamenický,Spiš. Podhradie 37480642 pečiatky a menovky 114,80 EUR 12.01.2017 M.Tatarková hospodárka
4500031572 Černický Pavol, Nemešany 14375168 kontrola has.prístr. a hydrant 412,00 EUR 16.01.2017 M.Tatarková hospodárka
4500031711 SYSTEMHOUSE, Levoča 34802665 elektronický terč 120,00 EUR 18.01.2017 M.Tatarková hospodárka
4500031712 B2B Partner,s.r.o.,Bratislava 44413467 prístavný kontajner 528,00 EUR 20.01.2017 M.Tatarková hospodárka
4500031722 Kamil Kopkáš Erkam, Levoča 44064039 odpad. prípojka pre kompostér 115,55 EUR 23.01.2017 M.Tatarková hospodárka
4500031723 Bigoš Vladimír, Levoča 10757597 potraviny na vyuč. 15,26 EUR 23.01.2017 M.Tatarková hospodárka
4500031914 Dušan Slaninka, Harichovce 10756744 odbor.prehl.RTP, plyn.kotlov a spotr. 380,08 EUR 06.02.2017 M.Tatarková hospodárka
4500031980 UNIQA poisťovňa a.s.,Bratislava 653501 poistenie majetku 03/2017-03/2018 1 131,00 EUR 09.02.2017 M.Tatarková hospodárka
4500032073 Bigoš Vladimír, Levoča 10757597 potraviny 12,37 EUR 27.02.2017 M.Tatarková hospodárka
4500032086 PEKZA, s.r.o., Levoča 36456900 nerezový plech 90,00 EUR 15.02.2017 M.Tatarková hospodárka
4500032200 Stanislav Spišák, Levoča 37476963 prekládka elektr. zariadenia 248,24 EUR 02.03.2017 M.Tatarková hospodárka
4500032207 PECE spol.s.r.o., Očová 36618233 učebné pomôcky 356,00 EUR 03.03.2017 M.Tatarková hospodárka
4500032261 Tehelňa STOVA, s.r.o. SNV 31703747 materiál na údržbu 214,82 EUR 13.03.2017 M.Tatarková hospodárka
4500032265 Stavebniny, s.r.o., Harichovce 36571547 materiál na údržbu 23,11 EUR 13.03.2017 M.Tatarková hospodárka
4500032280 POK Peter Vanacký, Levoča 37479393 kontrola komínov 99,00 EUR 13.03.2017 M.Tatarková hospodárka
4500032301 Marián Slejzák, Smižany 33061246 vlajky SR a EU 198,00 EUR 16.03.2017 M.Tatarková hospodárka
4500032367 PP-revízie, s.r.o. 44612231 odbor.prehl. tlak. nádob plyn.kotolne 114,00 EUR 13.03.2017 M.Tatarková hospodárka
4500032396 RTVS, Bratislava 47232480 koncesionársky poplatok r.2017 222,96 EUR 20.03.2017 M.Tatarková hospodárka
4500032441 V.Kamenický, Spiš.Podhradie 37480642 pečiatka trodat 55,38 EUR 20.03.2017 M.Tatarková hospodárka
4500032489 Ing.Anton Ferenc-TOPO,Prešov 32923244 čistiace prostriedky 425,40 EUR 23.03.2017 M.Tatarková hospodárka
4500032534 Jozef Kuľa, Levoča 33058237 výroba zábradlia 153,32 EUR 30.03.2017 M.Tatarková hospodárka
4500032535 Bigoš Vladimír, Levoča 10757597 potraviny 28,11 EUR 30.03.2017 M.Tatarková hospodárka
4500032566 Ján Petras, Veľká Lomnica 34895426 oprava havarij.stavu kanalizácie 188,48 EUR 31.03.2017 M.Tatarková hospodárka
4500032536 KP plus, s.r.o. Kežmarok 36475025 kancelárske potreby 235,43 EUR 03.04.2017 M.Tatarková hospodárka
4500032539 KP plus, s.r.o. Kežmarok 36475025 kancelárske potreby 364,87 EUR 03.04.2017 M.Tatarková hospodárka
4500032673 KA-BE s.r.o., Žilina 50401815 náradie na upratovanie 526,92 EUR 06.04.2017 M.Tatarková hospodárka
4500032674 Jozef Danko ml., Poprad 43791522 čistenie kanalizácie 145,00 EUR 10.04.2017 M.Tatarková hospodárka
4500032740 ACS spol. s.r.o., SNV 36582298 vysávač na okná 151,99 EUR 10.04.2017 M.Tatarková hospodárka
4500032768 PaedDr. K. Volčková, Kendice 46443983 multifunkčný plašič škodcov 80,00 EUR 17.04.2017 M.Tatarková hospodárka
4500032769 V a V Akademy, s.r.o., Prešov 46106723 popl. za vdeláv. Kurz - bezpeč.tech. 550,00 EUR 17.04.2017 M.Tatarková hospodárka
4500032772 KP plus, s.r.o. Kežmarok 36475025 kancelárske potreby 76,38 EUR 18.04.2017 M.Tatarková hospodárka
4500032776 Vladimír Dulovič, Levoča 10763368 kontrola ozvučenia r. 2017 60,00 EUR 19.04.2017 M.Tatarková hospodárka
4500032777 Vladimír Dulovič, Levoča 10763368 5x revízia kamery,rozhl.,popl.,anten. 120,00 EUR 19.04.2017 M.Tatarková hospodárka
4500032852 Hotel ARKADA, s.r.o.,Levoča 36451134 stravov.služby-seminár 471,90 EUR 19.04.2017 M.Tatarková hospodárka
4500032856 RNDr.Allan Dudinský, Úloža 31303951 masážna emulzia 34,45 EUR 24.04.2017 M.Tatarková hospodárka
4500032859 ZONIC-Zoričák Jozef, Levoča 37479369 žiarovky 1 068,25 EUR 24.04.2017 M.Tatarková hospodárka
4500032866 PhDr. Potengová, Levoča 37785923 terapeut.-poradenská starostl. 70,00 EUR 19.04.2017 M.Tatarková hospodárka
4500032868 Mesto Levoča 329321 miestny popl. za kom.odpad r.2017 715,00 EUR 19.04.2017 M.Tatarková hospodárka
4500032869 Mesto Levoča 329321 daň z nehnuteľnosti r.2017 1 128,80 EUR 19.04.2017 M.Tatarková hospodárka
4500032881 Bigoš Vladimír, Levoča 10757597 potraviny na vyuč. 9,41 EUR 26.04.2017 M.Tatarková hospodárka
4500032981 Pergamon,spol.s.r.o., Bratislava 31327681 tonery 133,36 EUR 27.04.2017 M.Tatarková hospodárka
4500032982 Pergamon,spol.s.r.o., Bratislava 31327681 tonery 2 462,33 EUR 27.04.2017 M.Tatarková hospodárka
4500032935 Ján Lorko,JAPA AUTO,Levoča 40858596 materiál na auto údržbu 60,80 EUR 04.05.2017 M.Tatarková hospodárka
4500032936 Poradca s.r.o., Žilina 36371271 predplatné Poradca r.2018 49,80 EUR 05.05.2017 M.Tatarková hospodárka
4500032980 Generali Poisťovňa,a.s.Bratislava 35709332 havarijné poistenie Škoda Octavia 310,28 EUR 10.05.2017 M.Tatarková hospodárka
4500033026 Tyflocomp s.r.o., Bratislava 35709413 výmena batérií-brail.pís.stroj 50,00 EUR 09.05.2017 M.Tatarková hospodárka
4500033047 Technická inšpekcia,a.s.,Košice 36653004 vykon.opak.úradnej skúšky-výťah 215,04 EUR 11.05.2017 M.Tatarková hospodárka
4500033048 Železiarstvo Olekšák,s.r.o.Levoč 36781410 nožnice záhradné 26,00 EUR 10.05.2017 M.Tatarková hospodárka
4500033064 Technické služby mesta Levoča 35528052 uskladnenie objemného odpadu 28,04 EUR 10.05.2017 M.Tatarková hospodárka
4500033071 František Rybka, Poprad 44771258 servis vzduchotechniky 200,00 EUR 17.05.2017 M.Tatarková hospodárka
4500033073 Atlantis Systems,s.r.o.,Bratisl. 35844230 web hosting Beta-obn.domény r.17 90,31 EUR 17.05.2017 M.Tatarková hospodárka
4500033121 MEVA-SK, s.r.o., Rožňava 31681051 betónové kvetináče vonkajšie 763,20 EUR 15.05.2017 M.Tatarková hospodárka
4500033135 Decathlon SK s.r.o.,Bratislava 47658827 športové potreby 19,57 EUR 19.05.2017 M.Tatarková hospodárka
4500033161 Stavebná prevádzkáreň,Levoča 36451975 služby UNC - vykládka tovaru 15,00 EUR 19.05.2017 M.Tatarková hospodárka
4500033218 Ing.Ľ.Petruška, Spiš.Vlachy 44953836 polystyrénové lišty 118,00 EUR 25.05.2017 M.Tatarková hospodárka
4500033222 ACS s.r.o., SNV 36582298 oprava tlak. čístiča Kärcher 162,24 EUR 25.05.2017 M.Tatarková hospodárka
4500033293 TRINET Corp., s.r.o.K.N.Mesto 36362786 petanque-sada gulí alu kufor 26,80 EUR 30.05.2017 M.Tatarková hospodárka
4500033294 Technické služby mesta Levoča 35528052 popl. za usklad.objem. Odpadu 17,85 EUR 22.05.2017 M.Tatarková hospodárka
4500033324 Ján Živčák-Záhradn.,Lieskovany 33850691 okrasné dreviny 94,70 EUR 30.05.2017 M.Tatarková hospodárka
4500033331 K@K BUS s.r.o., Sp.Podhradie 47551992 preprava autobusom 600,00 EUR 30.05.2017 M.Tatarková hospodárka
4500033359 Martin Hasaj PROAUTO,Levoča 45266484 autokozmetika 67,00 EUR 01.06.2017 M.Tatarková hospodárka
4500033360 Martin Hasaj PROAUTO,Levoča 45266484 servis osobných áut 358,00 EUR 01.06.2017 M.Tatarková hospodárka
4500033362 V a V Akademy s.r.o.,Prešov 46106723 odbor.príprava technikov PO 399,00 EUR 05.06.2017 M.Tatarková hospodárka
4500033363 Marta Točoňová, Levoča 34804951 práčka WHIRPOOL 289,00 EUR 05.06.2017 M.Tatarková hospodárka
4500033365 Vladimír Bigoš, Levoča 10757597 potraviny 37,46 EUR 06.06.2017 M.Tatarková hospodárka
4500033465 Železiarstvo Olekšák,s.r.o.Levoč 36781410 plast.nádoby do keram.dielne 9,50 EUR 12.06.2017 M.Tatarková hospodárka
4500033467 Železiarstvo Olekšák,s.r.o.Levoč 36781410 materiál na údržbu 59,43 EUR 12.06.2017 M.Tatarková hospodárka
4500033469 Železiarstvo Olekšák,s.r.o.Levoč 36781410 materiál na údržbu kanalizácie 51,60 EUR 12.06.2017 M.Tatarková hospodárka
4500033515 TIME s.r.o., Prešov 44968205 záhradnícke potreby 112,39 EUR 16.06.2017 M.Tatarková hospodárka
4500033516 KP plus, s.r.o. 36475025 kancelárske potreby 3,97 EUR 16.06.2017 M.Tatarková hospodárka
4500033575 PRO GRUP, s.r.o., SNV 36610607 polep auta rezanou samolepkou 93,60 EUR 19.06.2017 M.Tatarková hospodárka
4500033594 Aureus Services, s.r.o.Malacky 45442088 pečiatky 59,27 EUR 12.06.2017 M.Tatarková hospodárka
4500033605 RNDr.Allan Dudinský, Levoča 31303951 plachta nepremokavá 50,86 EUR 23.06.2017 M.Tatarková hospodárka
4500033634 Martina Klembarová, Levoča 50093355 všeobecný materiál 77,45 EUR 26.06.2017 M.Tatarková hospodárka
4500033635 Martina Klembarová, Levoča 50093355 farby a maliarske potreby 146,64 EUR 26.06.2017 M.Tatarková hospodárka
4500033636 Vladimír Dulovič, Levoča 10763368 zariadenie a monitor na kamer.syst. 656,29 EUR 26.06.2017 M.Tatarková hospodárka
4500033637 Bigoš Vladimír, Levoča 10757597 potraviny 15,77 EUR 26.06.2017 M.Tatarková hospodárka
4500033756 MIVA Market s.r.o., Smižany 36704041 čistiace a dezinfekčné prostriedky 1 344,29 EUR 10.07.2017 M.Tatarková hospodárka
4500033839 Xepap s.r.o., Zvolen 31628605 kancelárske potreby 274,61 EUR 07.07.2017 M.Tatarková hospodárka
4500033847 Xepap s.r.o., Zvolen 31628605 kancelárske potreby 47,76 EUR 14.07.2017 M.Tatarková hospodárka
1003030010 Slovak Telekom a.s.,Bratislava 35763469 zmluva na r.2017 - internt.služby 150,00 EUR 10.07.2017 M.Tatarková hospodárka
1003030011 Levonet s.r.o., Levoča 36480983 zmluva na r.2017 - internt.služby 600,00 EUR 11.07.2017 M.Tatarková hospodárka
4500034139 Technické služby mesta Levoča 35528052 uloženie objemného odpadu 17,85 EUR 17.08.2017 M.Tatarková hospodárka
4500034187 POK Peter Vanacký, Levoča 37479393 kontrola komínov 99,00 EUR 31.08.2017 M.Tatarková hospodárka
4500034244 Železiarstvo Olekšák, Levoča 36781410 materiál na údržbu-hadica 2,56 EUR 28.08.2017 M.Tatarková hospodárka
4500034245 Železiarstvo Olekšák, Levoča 36781410 materiál na údržbu-oceľové sito 36,00 EUR 28.08.2017 M.Tatarková hospodárka
4500034246 Železiarstvo Olekšák, Levoča 36781410 materiál na údržbu-protišmyk.podl. 6,50 EUR 28.08.2017 M.Tatarková hospodárka
4500034169 Martina Klembarová, Levoča 50093355 Obrusy PVC 7,78 EUR 04.09.2017 M.Tatarková hospodárka
4500034170 Martina Klembarová, Levoča 50093355 materiál na údržbu - mal.farby 28,09 EUR 04.09.2017 M.Tatarková hospodárka
4500034275 Vladimír Dulovič, Levoča 10763368 kontrola ozvučenia 2.polrok 2017 60,00 EUR 11.09.2017 M.Tatarková hospodárka
4500034387 SKN M.Hrebendu, Levoča 37780387 šlabikár v Brailovom písme 180,00 EUR 18.09.2017 M.Tatarková hospodárka
4500034410 PECE s.r.o., Očová 36618233 učebné pomôcky - keram. 349,15 EUR 22.09.2017 M.Tatarková hospodárka
4500034462 B - komplet, s.r.o., SNV 36600326 učebné pomôcky - molitan 48,10 EUR 26.09.2017 M.Tatarková hospodárka
4500034463 Marta Točoňová, Levoča 34804951 mikrovlnná rúra 79,00 EUR 26.09.2017 M.Tatarková hospodárka
4500034537 Vladimír Bigoš, Levoča 10757597 potraviny 15,35 EUR 26.09.2017 M.Tatarková hospodárka
4500034538 Extravagant,s.r.o.Spiš.Podhradie 50435272 nástenné hodiny 11,90 EUR 25.09.2017 M.Tatarková hospodárka
4500034539 Ján Lorko, Levoča 40858596 pneumatiky 238,00 EUR 26.09.2017 M.Tatarková hospodárka
4500034540 Edos-pem, Bratislava 36287229 vzdeláv.podujatie-Elektr.úrad 64,00 EUR 02.10.2017 M.Tatarková hospodárka
4500034577 ZONIC-Zoričák J., Levoča 37479369 alkalické batérie 58,10 EUR 03.10.2017 M.Tatarková hospodárka
4500034608 MANO DDD, s.r.o., Sp.Hrhov 44876271 dezinfekcia a dezinsekcia budovy 1 734,00 EUR 02.10.2017 M.Tatarková hospodárka
4500034611 Železiarstvo Olekšák,Levoča 36781410 materiál na údržbu 59,00 EUR 02.10.2017 M.Tatarková hospodárka
4500034613 Železiarstvo Olekšák,Levoča 36781410 materiál na údržbu 25,75 EUR 02.10.2017 M.Tatarková hospodárka
4500034615 STEPS-Renáta Hrobová,Nitra 40494748 AKU uhlová brúska 361,00 EUR 06.10.2017 M.Tatarková hospodárka
4500034673 Martina Klembarová, Levoča 50093355 lepidlo na vyučov. 32,09 EUR 09.10.2017 M.Tatarková hospodárka
4500034738 BAL SLOVAKIA, Žilina 36396044 farba syntetická 21,31 EUR 16.10.2017 M.Tatarková hospodárka
4500034788 PRO GRUP, s.r.o., Sp.Nová Ves 36610607 kalendár stolový s vlast.fotkami 864,00 EUR 16.10.2017 M.Tatarková hospodárka
4500034832 J.Lesňák-LeComp, Levoča 51147220 oprava tlačiarne 30,00 EUR 16.10.2017 M.Tatarková hospodárka
4500034834 Šoltýs-výťahy,s.r.o. Smižany 36208655 oprava čípov ovládača výťahu 156,00 EUR 16.10.2017 M.Tatarková hospodárka
4500034837 Wolters Kluwer,s.r.o.Bratislava 31348262 predpl.Účtovn.ROPO r.2018 98,00 EUR 16.10.2017 M.Tatarková hospodárka
4500034838 M.B.M. nábytok, SNV 36580112 kancelárske kreslo 236,00 EUR 16.10.2017 M.Tatarková hospodárka
4500034840 ELPS, s.r.o., Letanovce 47251026 odbor.prehl. Bleskozvodu 247,69 EUR 19.10.2017 M.Tatarková hospodárka
4500034846 MyRO s.r.o., SNV 50930966 vyprac.požiar.evakuač.plánov 400,00 EUR 23.10.2017 M.Tatarková hospodárka
4500034847 KA-BE s.r.o., Žilina 50401815 profesionálny čistič podláh 1 680,00 EUR 19.10.2017 M.Tatarková hospodárka
4500034897 SKN M.Hrebendu, Levoča 37780387 predpl. Časop.pre nevidiacich r.2018 147,00 EUR 23.10.2017 M.Tatarková hospodárka
4500034900 Katarína Pivovarová, Prešov hudobné vystúpenie - 40.výročie 500,00 EUR 23.10.2017 M.Tatarková hospodárka
4500034901 Valkoššák Jozef, SNV 33851719 hudobná produkcia - 40.výročie 598,80 EUR 23.10.2017 M.Tatarková hospodárka
4500034907 Železiarstvo Olekšák,Levoča 36781410 učebné pomôcky-keramický kurz 36,40 EUR 24.10.2017 M.Tatarková hospodárka
4500034909 Železiarstvo Olekšák,Levoča 36781410 výroba FAB kľúča 5,00 EUR 23.10.2017 M.Tatarková hospodárka
4500034910 Železiarstvo Olekšák,Levoča 36781410 odhrňovač snehu 42,40 EUR 23.10.2017 M.Tatarková hospodárka
4500034911 Železiarstvo Olekšák,Levoča 36781410 metla cestárska s násadou 19,00 EUR 23.10.2017 M.Tatarková hospodárka
4500034919 Triangle Group International,Kež 31648835 poplatok za ubyt.hostí-40.výročie 211,00 EUR 24.10.2017 M.Tatarková hospodárka
4500034928 Bigoš Vladimír, Levoča 10757597 potraviny na vyučov. 25,84 EUR 30.10.2017 M.Tatarková hospodárka
4500034937 Mestské kult.stredisko, Levoča 42080312 prenájom priest.divadla - 40.výročie 380,00 EUR 23.10.2017 M.Tatarková hospodárka
4500034976 Cestné prvky,s.r.o., Žilina 46875891 varovné gombíky na schody 9 119,00 EUR 06.10.2017 M.Tatarková hospodárka
4500035035 Mgr. Dagmar Čeljusková,Košice 45997691 športové potreby 63,66 EUR 06.11.2017 M.Tatarková hospodárka
4500035047 Filteko, s.r.o., Veľká Lomnica 36462110 filter do plynovej kotolne 12,00 EUR 06.11.2017 M.Tatarková hospodárka
4500035058 Jozef Dávid, Jánovce 40325717 kuchynská linka na mieru 650,00 EUR 02.11.2017 M.Tatarková hospodárka
4500035113 RNDr. Allan Dudinský, Uloža 31303951 ochranný odev 33,70 EUR 03.11.2017 M.Tatarková hospodárka
4500035114 SOBWATER s.r.o., Levoča 36457167 tabletovaná soľ 30,60 EUR 07.11.2017 M.Tatarková hospodárka
4500035158 M.B.M. nábytok, SNV 36580112 kancelárske kreslo 354,00 EUR 09.11.2017 M.Tatarková hospodárka
4500035186 NAY a.s., Bratislava 35739487 ručný mixér a kávovar 193,90 EUR 14.11.2017 M.Tatarková hospodárka
4500035187 Nezábudka s.r.o., SNV 47968834 kompresor 85,00 EUR 14.11.2017 M.Tatarková hospodárka
4500035202 Oprava-mont.-gastro zar., Vrbov 33878579 oprava plynovej panvice 93,90 EUR 14.11.2017 M.Tatarková hospodárka
4500035261 Ján Ľorko, Levoča 40858596 autolekárnička 22,50 EUR 20.11.2017 M.Tatarková hospodárka
4500035312 Michaela Valkoššáková, SNV 47819804 stojany a mikrofóny 289,01 EUR 23.11.2017 M.Tatarková hospodárka
4500035326 PECE spol.s.r.o., Očová 36618233 odkaľovacia nádrž s vekom 360,00 EUR 24.11.2017 M.Tatarková hospodárka
4500035362 M.V.Nábytok,s.r.o., SNV 44030053 kancelársky nábytok 2 122,00 EUR 20.11.2017 M.Tatarková hospodárka
4500035363 Stanislav Spišák, Levoča 37476963 oprava el.inštalácie 81,70 EUR 23.11.2017 M.Tatarková hospodárka
4500035364 Nezábudka s.r.o., SNV 47968834 keramické panvice 94,40 EUR 24.11.2017 M.Tatarková hospodárka
4500035366 Nezábudka s.r.o., SNV 47968834 domáce kuchynské potreby 64,40 EUR 24.11.2017 M.Tatarková hospodárka
4500035367 Sklenárstvo Glončák, Levoča 14374021 zasklenie nábyt. Dvierok 44,00 EUR 27.11.2017 M.Tatarková hospodárka
4500035375 Slovenská pošta a.s.B.Bystrica 36631124 predplatné časopisov 36,48 EUR 27.11.2017 M.Tatarková hospodárka
4500035378 FESI comp,s.r.o., SNV 36597431 počítače HP s príslušenstvom 1 979,60 EUR 27.11.2017 M.Tatarková hospodárka
4500035387 Miloš Németh HAKA, Nitra 47778512 rámy na fotky 229,54 EUR 27.11.2017 M.Tatarková hospodárka
4500035512 Bigoš Vladimír, Levoča 10757597 potraviny 30,68 EUR 29.11.2017 M.Tatarková hospodárka
1003020029 BCF s.r.o., Banská Bystrica 36597007 elektr.energia r.2017 1 500,00 EUR 02.10.2017 M.Tatarková hospodárka
1030020030 Pergamon spol.s.r.o., Bratislava 31327681 tonery r. 2017 2 000,00 EUR 23.10.2017 M.Tatarková hospodárka
4500035585 MK alarm s.r.o., 36370606 výmena rádiov.karty na diaľ.ovl.br. 402,60 EUR 30.11.2017 M.Tatarková hospodárka
4500035517 RVC-ZO, Štrba 31954502 popl.za odborný seminár 13,00 EUR 04.12.2017 M.Tatarková hospodárka
4500035528 NAY a.s., Bratislava 35739487 truhlicová mraznička 309,00 EUR 01.12.2017 M.Tatarková hospodárka
4500035529 Kooperatíva poisťovna, a.s. 585441 poistné os.automob.r.2018 371,45 EUR 04.12.2017 M.Tatarková hospodárka
4500035535 Železiarstvo Olekšák, Levoča 36781410 kuchynské potreby 81,30 EUR 01.12.2017 M.Tatarková hospodárka
4500035554 ACEA, s.r.o., Bratislava 46969055 materiál na údržbu 41,56 EUR 07.12.2017 M.Tatarková hospodárka
4500035557 DATAS-Lučivjanský, SNV 35320214 tlačiareň farebná A4 469,00 EUR 07.12.2017 M.Tatarková hospodárka
4500035559 Tyflocomp s.r.o., Bratislava 35709413 papier do reliéfnej tlačiarne 420,00 EUR 05.12.2017 M.Tatarková hospodárka
4500035634 DEKOR POINT,Kráľ.Chlmec 36831301 lipové drevo - učebné pomôcky 117,50 EUR 07.12.2017 M.Tatarková hospodárka
4500035669 PRO GRUP, s.r.o., SNV 36610607 kalendár stolový r.2018 261,79 EUR 12.12.2017 M.Tatarková hospodárka
4500035671 Jozef Dávid, Jánovce 40325717 nočné stolíky 2 200,00 EUR 12.12.2017 M.Tatarková hospodárka
4500035724 Nezábudka s.r.o., SNV 47968834 kuchynské potreby 114,60 EUR 14.12.2017 M.Tatarková hospodárka
4500035675 STEPS Nitra-Renáta Hrobová 40494748 tepovač Kärcher 1 219,20 EUR 12.12.2017 M.Tatarková hospodárka
4500035734 Martin Hasaj PROAUTO, Levoča 45266484 výmena pneumatík 30,00 EUR 15.12.2017 M.Tatarková hospodárka
4500035742 TV Levoča 36600113 videozáznam - 40.výročie 400,00 EUR 15.12.2017 M.Tatarková hospodárka
4500035743 B2B Partner, s.r.o., Bratislava 44413467 policový regál 398,40 EUR 15.12.2017 M.Tatarková hospodárka
4500035763 Bigoš Vladimír, Levoča 10757597 potraviny 17,91 EUR 15.12.2017 M.Tatarková hospodárka
4500035771 Železiarstvo Olekšák, Levoča 36781410 materiál na údržbu 227,30 EUR 18.12.2017 M.Tatarková hospodárka
4500035773 Galajdová Mária, Levoča 14372851 potraviny 20,00 EUR 22.12.2017 M.Tatarková hospodárka
M.Tatarková hospodárka

© 2005 Rehabilitačné stredisko pre zrakovo postihnutých | Kasárenská 16, 054 01 Levoča
tel: +421 053 416 6411 | telefax: +421 053 416 6432 | e-mail: rszp@rszp.sk